Time;durP1;ratioP1;P1;durP2;ratioP2;P2;SDS_P1;SDS_P2;PMS_P1;PMS_P2;Temp;Humidity;BMP_temperature;BMP_pressure;BME280_temperature;BME280_humidity;BME280_pressure;Samples;Min_cycle;Max_cycle;Signal;HPM_P1;HPM_P2
2021/09/05 00:00:00;;;;;;;23.00;18.87;;;17.30;99.90;;;;;;5011569;28;20219;-71
2021/09/05 00:02:26;;;;;;;20.50;17.50;;;17.20;99.90;;;;;;5011400;28;20524;-71
2021/09/05 00:04:52;;;;;;;20.63;18.27;;;17.10;99.90;;;;;;5011328;28;20174;-71
2021/09/05 00:07:17;;;;;;;19.80;17.67;;;17.10;99.90;;;;;;5009261;28;20182;-71
2021/09/05 00:09:43;;;;;;;27.00;18.63;;;17.00;99.90;;;;;;5011612;28;20179;-71
2021/09/05 00:12:09;;;;;;;22.23;18.20;;;16.90;99.90;;;;;;5012467;28;20170;-70
2021/09/05 00:14:36;;;;;;;21.70;17.97;;;16.90;99.90;;;;;;5012066;28;20183;-79
2021/09/05 00:17:02;;;;;;;22.33;19.40;;;16.80;99.90;;;;;;5010758;28;20722;-71
2021/09/05 00:19:28;;;;;;;20.70;17.57;;;16.80;99.90;;;;;;5013524;28;20985;-71
2021/09/05 00:21:54;;;;;;;22.23;17.83;;;16.80;99.90;;;;;;5012505;28;20205;-71
2021/09/05 00:24:20;;;;;;;21.53;18.17;;;16.80;99.90;;;;;;5013506;28;20175;-71
2021/09/05 00:26:49;;;;;;;20.10;17.30;;;16.70;99.90;;;;;;5012736;28;20406;-71
2021/09/05 00:29:16;;;;;;;22.87;18.27;;;16.50;99.90;;;;;;5013516;28;20563;-70
2021/09/05 00:31:41;;;;;;;23.13;18.43;;;16.30;99.90;;;;;;5012337;28;20458;-72
2021/09/05 00:34:07;;;;;;;22.47;17.70;;;16.20;99.90;;;;;;5012000;28;20519;-71
2021/09/05 00:36:33;;;;;;;22.43;19.23;;;16.30;99.90;;;;;;5013422;28;20219;-71
2021/09/05 00:38:59;;;;;;;23.20;17.77;;;16.30;99.90;;;;;;5012185;28;20802;-71
2021/09/05 00:41:25;;;;;;;22.50;17.77;;;16.40;99.90;;;;;;5013655;28;20409;-71
2021/09/05 00:43:53;;;;;;;22.27;18.47;;;16.40;99.90;;;;;;5012754;28;20178;-71
2021/09/05 00:46:19;;;;;;;23.70;18.60;;;16.30;99.90;;;;;;5012806;28;20190;-71
2021/09/05 00:48:45;;;;;;;19.83;17.70;;;16.30;99.90;;;;;;5012392;28;20430;-71
2021/09/05 00:51:10;;;;;;;20.77;17.57;;;16.30;99.90;;;;;;5005735;28;20187;-71
2021/09/05 00:53:36;;;;;;;21.37;19.03;;;16.30;99.90;;;;;;4993387;28;20183;-71
2021/09/05 00:56:02;;;;;;;22.17;18.73;;;16.30;99.90;;;;;;4992298;28;20183;-71
2021/09/05 00:58:30;;;;;;;22.03;18.10;;;16.30;99.90;;;;;;4992088;28;20217;-71
2021/09/05 01:00:57;;;;;;;21.17;18.67;;;16.20;99.90;;;;;;5005408;28;20206;-71
2021/09/05 01:03:22;;;;;;;21.90;18.90;;;16.10;99.90;;;;;;5012680;28;20448;-71
2021/09/05 01:05:48;;;;;;;24.33;18.90;;;16.00;99.90;;;;;;5012090;28;20441;-71
2021/09/05 01:08:14;;;;;;;20.17;17.90;;;15.70;99.90;;;;;;5011724;28;20185;-71
2021/09/05 01:10:40;;;;;;;21.70;17.00;;;15.70;99.90;;;;;;5012573;28;20252;-78
2021/09/05 01:13:06;;;;;;;22.43;18.80;;;15.70;99.90;;;;;;5012399;28;20186;-71
2021/09/05 01:15:32;;;;;;;22.93;18.20;;;15.70;99.90;;;;;;5011511;28;20503;-71
2021/09/05 01:17:57;;;;;;;21.67;17.70;;;15.70;99.90;;;;;;5011809;28;21016;-71
2021/09/05 01:20:23;;;;;;;21.73;17.93;;;15.80;99.90;;;;;;5011564;28;20186;-71
2021/09/05 01:22:49;;;;;;;19.67;17.57;;;15.80;99.90;;;;;;5011516;28;20187;-71
2021/09/05 01:25:15;;;;;;;19.50;17.17;;;15.90;99.90;;;;;;5012388;28;20269;-71
2021/09/05 01:27:40;;;;;;;23.50;16.97;;;15.90;99.90;;;;;;5012299;28;20684;-79
2021/09/05 01:30:07;;;;;;;19.93;16.50;;;16.00;99.90;;;;;;5012196;28;20171;-71
2021/09/05 01:32:32;;;;;;;20.20;16.27;;;16.00;99.90;;;;;;5012308;28;20417;-71
2021/09/05 01:34:58;;;;;;;19.30;16.10;;;16.10;99.90;;;;;;5011514;28;20466;-71
2021/09/05 01:37:24;;;;;;;18.33;15.90;;;16.10;99.90;;;;;;5012707;28;20308;-71
2021/09/05 01:39:50;;;;;;;20.97;15.37;;;16.10;99.90;;;;;;5011619;28;20202;-71
2021/09/05 01:42:15;;;;;;;19.40;17.30;;;16.10;99.90;;;;;;5012217;28;20184;-71
2021/09/05 01:44:41;;;;;;;25.67;17.47;;;16.10;99.90;;;;;;5012225;28;20639;-78
2021/09/05 01:47:07;;;;;;;18.83;16.00;;;16.20;99.90;;;;;;5010578;28;20188;-70
2021/09/05 01:49:33;;;;;;;18.97;15.87;;;16.20;99.90;;;;;;5010937;28;20201;-71
2021/09/05 01:51:58;;;;;;;18.70;15.90;;;16.20;99.90;;;;;;5011510;28;20193;-71
2021/09/05 01:54:24;;;;;;;19.03;15.97;;;16.20;99.90;;;;;;5012539;28;20254;-70
2021/09/05 01:56:50;;;;;;;18.07;14.87;;;16.20;99.90;;;;;;5011458;28;20220;-71
2021/09/05 01:59:15;;;;;;;18.20;15.33;;;16.20;99.90;;;;;;5011031;28;20206;-70
2021/09/05 02:01:41;;;;;;;18.70;15.70;;;16.10;99.90;;;;;;5012359;28;20650;-71
2021/09/05 02:04:07;;;;;;;18.90;16.90;;;16.20;99.90;;;;;;5011051;28;20254;-71
2021/09/05 02:06:33;;;;;;;19.03;16.03;;;16.20;99.90;;;;;;5011224;28;20187;-71
2021/09/05 02:08:59;;;;;;;20.37;15.80;;;16.20;99.90;;;;;;5015260;28;20539;-71
2021/09/05 02:11:25;;;;;;;17.67;14.33;;;16.10;99.90;;;;;;5015650;28;20513;-71
2021/09/05 02:13:52;;;;;;;20.20;15.20;;;16.10;99.90;;;;;;5014947;28;20178;-71
2021/09/05 02:16:18;;;;;;;19.60;16.37;;;16.10;99.90;;;;;;5015782;28;20436;-71
2021/09/05 02:18:44;;;;;;;20.20;16.00;;;16.00;99.90;;;;;;5015497;28;20465;-80
2021/09/05 02:21:10;;;;;;;18.83;16.33;;;16.00;99.90;;;;;;5014943;28;20421;-71
2021/09/05 02:23:36;;;;;;;20.70;16.10;;;16.00;99.90;;;;;;5015910;28;20544;-71
2021/09/05 02:26:02;;;;;;;20.23;16.60;;;16.00;99.90;;;;;;5014933;28;20308;-71
2021/09/05 02:28:27;;;;;;;18.47;15.50;;;16.00;99.90;;;;;;5014097;28;20233;-71
2021/09/05 02:30:53;;;;;;;18.23;16.10;;;16.00;99.90;;;;;;5014840;28;20182;-71
2021/09/05 02:33:19;;;;;;;17.07;15.20;;;16.00;99.90;;;;;;5015600;28;20189;-71
2021/09/05 02:35:44;;;;;;;16.23;14.53;;;16.00;99.90;;;;;;5013527;28;20245;-80
2021/09/05 02:38:11;;;;;;;18.53;15.97;;;16.00;99.90;;;;;;5014921;28;20213;-71
2021/09/05 02:40:36;;;;;;;23.73;17.33;;;16.00;99.90;;;;;;5015457;28;20209;-71
2021/09/05 02:43:02;;;;;;;19.43;16.70;;;16.00;99.90;;;;;;5013408;28;20921;-71
2021/09/05 02:45:28;;;;;;;21.77;16.23;;;16.00;99.90;;;;;;5015303;28;20177;-71
2021/09/05 02:47:54;;;;;;;19.67;16.47;;;16.00;99.90;;;;;;5014708;28;20182;-71
2021/09/05 02:50:19;;;;;;;18.53;15.87;;;16.00;99.90;;;;;;5013856;28;20185;-71
2021/09/05 02:52:45;;;;;;;22.27;16.40;;;16.00;99.90;;;;;;5014703;28;20672;-79
2021/09/05 02:55:11;;;;;;;17.87;15.43;;;16.00;99.90;;;;;;5014705;28;20191;-71
2021/09/05 02:57:36;;;;;;;19.80;16.00;;;16.00;99.90;;;;;;5014838;28;20621;-71
2021/09/05 03:00:04;;;;;;;20.13;15.73;;;15.90;99.90;;;;;;5014304;28;20665;-71
2021/09/05 03:02:29;;;;;;;19.00;16.20;;;15.90;99.90;;;;;;5015223;28;20589;-71
2021/09/05 03:04:55;;;;;;;16.63;14.83;;;15.90;99.90;;;;;;5014068;28;20452;-71
2021/09/05 03:07:21;;;;;;;19.03;14.40;;;15.80;99.90;;;;;;5014945;28;20179;-73
2021/09/05 03:09:47;;;;;;;16.80;14.17;;;15.80;99.90;;;;;;5014183;28;20265;-78
2021/09/05 03:12:12;;;;;;;18.90;15.83;;;15.80;99.90;;;;;;5014488;28;20394;-70
2021/09/05 03:14:38;;;;;;;17.43;15.63;;;15.80;99.90;;;;;;5014816;28;20186;-71
2021/09/05 03:17:04;;;;;;;18.10;15.20;;;15.80;99.90;;;;;;5014018;28;20189;-71
2021/09/05 03:19:29;;;;;;;16.90;14.90;;;15.80;99.90;;;;;;5014389;28;20296;-70
2021/09/05 03:21:55;;;;;;;18.60;15.57;;;15.80;99.90;;;;;;4996451;28;20539;-71
2021/09/05 03:24:21;;;;;;;16.93;14.90;;;15.80;99.90;;;;;;5014333;28;20180;-71
2021/09/05 03:26:46;;;;;;;17.70;15.67;;;15.80;99.90;;;;;;5014518;28;20269;-79
2021/09/05 03:29:12;;;;;;;18.10;16.20;;;15.70;99.90;;;;;;5013713;28;20654;-71
2021/09/05 03:31:38;;;;;;;17.73;15.30;;;15.80;99.90;;;;;;5014303;28;20186;-71
2021/09/05 03:34:04;;;;;;;17.53;15.07;;;15.80;99.90;;;;;;5013625;28;20574;-70
2021/09/05 03:36:30;;;;;;;18.23;15.10;;;15.70;99.90;;;;;;5014520;28;20624;-71
2021/09/05 03:38:56;;;;;;;16.60;14.80;;;15.70;99.90;;;;;;5013560;28;20453;-71
2021/09/05 03:41:21;;;;;;;19.20;15.90;;;15.70;99.90;;;;;;5012879;28;20638;-71
2021/09/05 03:43:47;;;;;;;18.93;15.70;;;15.70;99.90;;;;;;5014295;28;20397;-71
2021/09/05 03:46:13;;;;;;;19.97;16.80;;;15.70;99.90;;;;;;5013644;28;20204;-71
2021/09/05 03:48:38;;;;;;;18.87;16.17;;;15.80;99.90;;;;;;5014232;28;20264;-71
2021/09/05 03:51:04;;;;;;;17.30;15.50;;;15.60;99.90;;;;;;5013383;28;20174;-71
2021/09/05 03:53:30;;;;;;;19.43;15.63;;;15.70;99.90;;;;;;5014173;28;20185;-71
2021/09/05 03:55:56;;;;;;;16.80;15.00;;;15.70;99.90;;;;;;5012861;28;20224;-71
2021/09/05 03:58:22;;;;;;;18.20;14.77;;;15.70;99.90;;;;;;5013681;28;20213;-71
2021/09/05 04:00:48;;;;;;;19.17;13.73;;;15.70;99.90;;;;;;5013961;28;20189;-71
2021/09/05 04:03:13;;;;;;;18.63;16.20;;;15.60;99.90;;;;;;5013102;28;20416;-71
2021/09/05 04:05:39;;;;;;;17.80;14.83;;;15.60;99.90;;;;;;5012399;28;20494;-71
2021/09/05 04:10:36;;;;;;;17.77;15.20;;;15.60;99.90;;;;;;5013784;28;20177;-71
2021/09/05 04:13:03;;;;;;;20.40;15.13;;;15.60;99.90;;;;;;5012387;28;20429;-71
2021/09/05 04:15:29;;;;;;;19.70;15.07;;;15.60;99.90;;;;;;5013656;28;20410;-71
2021/09/05 04:17:56;;;;;;;17.87;14.23;;;15.60;99.90;;;;;;5012988;28;20478;-71
2021/09/05 04:20:22;;;;;;;18.23;14.77;;;15.60;99.90;;;;;;5013442;28;20194;-71
2021/09/05 04:22:48;;;;;;;17.10;15.30;;;15.60;99.90;;;;;;5013456;28;20431;-71
2021/09/05 04:25:14;;;;;;;16.80;14.10;;;15.50;99.90;;;;;;5012129;28;20416;-71
2021/09/05 04:27:40;;;;;;;17.27;15.43;;;15.50;99.90;;;;;;5013338;28;20186;-71
2021/09/05 04:30:07;;;;;;;18.67;15.10;;;15.50;99.90;;;;;;5012173;28;20421;-71
2021/09/05 04:32:34;;;;;;;17.03;15.23;;;15.50;99.90;;;;;;5013540;28;20412;-71
2021/09/05 04:35:00;;;;;;;17.30;15.40;;;15.50;99.90;;;;;;5012372;28;20478;-71
2021/09/05 04:37:26;;;;;;;16.43;14.70;;;15.50;99.90;;;;;;5013466;28;20408;-71
2021/09/05 04:39:52;;;;;;;19.60;14.23;;;15.50;99.90;;;;;;5012675;28;20862;-79
2021/09/05 04:42:18;;;;;;;16.83;14.93;;;15.40;99.90;;;;;;5013140;28;20413;-71
2021/09/05 04:44:44;;;;;;;17.50;15.10;;;15.50;99.90;;;;;;5012515;28;20182;-70
2021/09/05 04:47:10;;;;;;;17.60;15.30;;;15.40;99.90;;;;;;5011051;28;20431;-71
2021/09/05 04:49:35;;;;;;;19.30;14.10;;;15.40;99.90;;;;;;5013274;28;20444;-70
2021/09/05 04:52:02;;;;;;;19.60;15.80;;;15.40;99.90;;;;;;5012303;28;20634;-71
2021/09/05 04:54:28;;;;;;;16.80;13.80;;;15.40;99.90;;;;;;5013174;28;20170;-71
2021/09/05 04:56:54;;;;;;;18.37;14.77;;;15.40;99.90;;;;;;5012616;28;20450;-79
2021/09/05 04:59:19;;;;;;;16.80;14.73;;;15.40;99.90;;;;;;5011210;28;20504;-70
2021/09/05 05:01:45;;;;;;;17.67;15.20;;;15.40;99.90;;;;;;5011909;28;20234;-71
2021/09/05 05:04:11;;;;;;;18.10;16.13;;;15.50;99.90;;;;;;5012140;28;20526;-71
2021/09/05 05:06:41;;;;;;;18.17;15.60;;;15.40;99.90;;;;;;5012952;28;20637;-71
2021/09/05 05:09:11;;;;;;;18.97;15.10;;;15.40;99.90;;;;;;5012025;28;20186;-70
2021/09/05 05:11:38;;;;;;;16.77;14.97;;;15.40;99.90;;;;;;5012759;28;20462;-71
2021/09/05 05:14:04;;;;;;;16.37;14.67;;;15.50;99.90;;;;;;5010720;28;20433;-71
2021/09/05 05:16:29;;;;;;;17.17;15.10;;;15.50;99.90;;;;;;5012871;28;20416;-71
2021/09/05 05:18:56;;;;;;;17.10;14.80;;;15.50;99.90;;;;;;5012196;28;20214;-79
2021/09/05 05:21:22;;;;;;;17.93;15.83;;;15.50;99.90;;;;;;5012233;28;20190;-71
2021/09/05 05:23:48;;;;;;;18.50;16.17;;;15.50;99.90;;;;;;5011474;28;20880;-71
2021/09/05 05:26:13;;;;;;;17.53;15.60;;;15.50;99.90;;;;;;5011604;28;20500;-71
2021/09/05 05:28:39;;;;;;;19.57;15.83;;;15.50;99.90;;;;;;5012832;28;20273;-71
2021/09/05 05:31:05;;;;;;;22.77;15.10;;;15.50;99.90;;;;;;5011525;28;20181;-71
2021/09/05 05:33:31;;;;;;;18.40;15.30;;;15.50;99.90;;;;;;5012267;28;20177;-71
2021/09/05 05:35:56;;;;;;;17.77;15.87;;;15.50;99.90;;;;;;5011721;28;20229;-78
2021/09/05 05:38:23;;;;;;;18.80;15.30;;;15.50;99.90;;;;;;5011922;28;20212;-71
2021/09/05 05:40:49;;;;;;;19.50;15.10;;;15.60;99.90;;;;;;5012496;28;20397;-71
2021/09/05 05:43:15;;;;;;;18.07;16.10;;;15.50;99.90;;;;;;5014212;28;20432;-71
2021/09/05 05:45:41;;;;;;;18.37;15.27;;;15.50;99.90;;;;;;5016504;28;20760;-71
2021/09/05 05:48:07;;;;;;;20.13;15.53;;;15.50;99.90;;;;;;5015852;28;20685;-71
2021/09/05 05:50:33;;;;;;;17.87;14.13;;;15.50;99.90;;;;;;5016432;28;20488;-71
2021/09/05 05:52:58;;;;;;;19.80;16.00;;;15.60;99.90;;;;;;5015734;28;20265;-79
2021/09/05 05:55:24;;;;;;;19.63;15.30;;;15.60;99.90;;;;;;5016328;28;20260;-71
2021/09/05 05:57:50;;;;;;;19.43;15.07;;;15.60;99.90;;;;;;5014931;28;20211;-71
2021/09/05 06:00:16;;;;;;;20.60;15.60;;;15.60;99.90;;;;;;5014871;28;20174;-71
2021/09/05 06:02:42;;;;;;;17.97;15.30;;;15.70;99.90;;;;;;5016069;28;20218;-72
2021/09/05 06:05:08;;;;;;;17.60;14.83;;;15.70;99.90;;;;;;5015376;28;20507;-72
2021/09/05 06:07:34;;;;;;;18.13;15.07;;;15.70;99.90;;;;;;5014920;28;20181;-72
2021/09/05 06:10:00;;;;;;;16.80;15.00;;;15.70;99.90;;;;;;5015432;28;20409;-79
2021/09/05 06:12:25;;;;;;;19.23;15.70;;;15.70;99.90;;;;;;5016212;28;20193;-72
2021/09/05 06:14:51;;;;;;;17.97;14.63;;;15.70;99.90;;;;;;5014748;28;20171;-72
2021/09/05 06:17:17;;;;;;;16.40;13.77;;;15.60;99.90;;;;;;5014983;28;20233;-72
2021/09/05 06:19:43;;;;;;;18.17;14.17;;;15.60;99.90;;;;;;5015828;28;20476;-72
2021/09/05 06:22:09;;;;;;;16.23;13.83;;;15.40;99.90;;;;;;5015007;28;20420;-72
2021/09/05 06:24:34;;;;;;;16.50;14.70;;;15.40;99.90;;;;;;5015800;28;20187;-72
2021/09/05 06:27:00;;;;;;;16.57;14.00;;;15.50;99.90;;;;;;5014040;28;20574;-80
2021/09/05 06:29:26;;;;;;;18.57;14.50;;;15.50;99.90;;;;;;5015251;28;20189;-72
2021/09/05 06:31:51;;;;;;;17.13;13.97;;;15.50;99.90;;;;;;5002416;28;20631;-72
2021/09/05 06:34:17;;;;;;;16.37;14.10;;;15.60;99.90;;;;;;5005169;28;20554;-72
2021/09/05 06:36:43;;;;;;;20.20;15.50;;;15.60;99.90;;;;;;5015222;28;20226;-72
2021/09/05 06:39:09;;;;;;;17.90;14.40;;;15.70;99.90;;;;;;5013512;28;20455;-73
2021/09/05 06:41:34;;;;;;;20.13;16.27;;;15.70;99.90;;;;;;5004293;28;20244;-72
2021/09/05 06:44:00;;;;;;;17.97;16.07;;;15.80;99.90;;;;;;5013259;28;20660;-80
2021/09/05 06:46:26;;;;;;;17.60;15.37;;;15.80;99.90;;;;;;5014391;28;20433;-72
2021/09/05 06:48:52;;;;;;;18.40;15.40;;;15.90;99.90;;;;;;5014089;28;20190;-77
2021/09/05 06:51:18;;;;;;;16.80;14.67;;;15.90;99.90;;;;;;5008523;28;20232;-72
2021/09/05 06:53:44;;;;;;;18.33;15.60;;;16.00;99.90;;;;;;5026438;28;20417;-72
2021/09/05 06:56:10;;;;;;;15.63;13.87;;;16.10;99.90;;;;;;5021607;28;20258;-72
2021/09/05 06:58:36;;;;;;;16.90;15.20;;;16.10;99.90;;;;;;5013946;28;21103;-73
2021/09/05 07:01:02;;;;;;;17.57;15.67;;;16.20;99.90;;;;;;5014481;28;20767;-80
2021/09/05 07:03:28;;;;;;;18.67;15.47;;;16.40;99.90;;;;;;5014337;28;20491;-72
2021/09/05 07:05:54;;;;;;;17.07;14.43;;;16.50;99.90;;;;;;5013657;28;20965;-73
2021/09/05 07:08:20;;;;;;;19.83;16.23;;;16.70;99.90;;;;;;5032178;28;20369;-72
2021/09/05 07:10:46;;;;;;;17.17;14.87;;;16.90;99.90;;;;;;5017284;28;20194;-72
2021/09/05 07:13:11;;;;;;;19.73;16.00;;;17.10;99.90;;;;;;5013819;28;20422;-73
2021/09/05 07:15:37;;;;;;;17.93;14.80;;;17.20;99.90;;;;;;5013296;28;20186;-73
2021/09/05 07:18:04;;;;;;;17.90;15.53;;;17.30;99.90;;;;;;5013783;28;20183;-80
2021/09/05 07:20:30;;;;;;;19.47;15.90;;;17.40;99.90;;;;;;5014659;28;20206;-72
2021/09/05 07:22:56;;;;;;;18.30;15.17;;;17.40;99.90;;;;;;5013426;28;20937;-73
2021/09/05 07:25:23;;;;;;;18.27;15.60;;;17.60;99.90;;;;;;5011523;28;20441;-72
2021/09/05 07:27:49;;;;;;;16.60;14.70;;;17.40;99.90;;;;;;5012751;28;20418;-73
2021/09/05 07:30:16;;;;;;;18.40;15.30;;;17.40;99.90;;;;;;5011531;28;20898;-72
2021/09/05 07:32:43;;;;;;;19.07;15.40;;;17.40;99.90;;;;;;5012936;28;20183;-72
2021/09/05 07:35:09;;;;;;;15.60;14.00;;;17.50;99.90;;;;;;5012867;28;20461;-73
2021/09/05 07:37:36;;;;;;;18.00;15.43;;;17.70;99.90;;;;;;5014426;28;20517;-72
2021/09/05 07:40:02;;;;;;;19.07;15.27;;;17.80;99.90;;;;;;5014221;28;20566;-79
2021/09/05 07:42:28;;;;;;;18.30;15.30;;;17.80;99.90;;;;;;5012783;28;20418;-72
2021/09/05 07:44:54;;;;;;;18.57;16.03;;;17.90;99.90;;;;;;5012771;28;20472;-73
2021/09/05 07:47:20;;;;;;;18.47;15.73;;;17.90;99.90;;;;;;5012542;28;20468;-72
2021/09/05 07:49:46;;;;;;;18.03;15.47;;;17.90;99.90;;;;;;5013108;28;20433;-72
2021/09/05 07:52:11;;;;;;;16.70;14.90;;;18.10;99.90;;;;;;5013458;28;20554;-72
2021/09/05 07:54:37;;;;;;;19.40;16.00;;;18.00;99.90;;;;;;5011693;28;20182;-73
2021/09/05 07:57:03;;;;;;;21.03;16.97;;;18.20;99.90;;;;;;5013659;28;20642;-80
2021/09/05 07:59:29;;;;;;;18.27;15.90;;;18.20;99.90;;;;;;5013100;28;20218;-73
2021/09/05 08:01:54;;;;;;;18.43;15.20;;;18.30;99.90;;;;;;5012394;28;20415;-72
2021/09/05 08:04:20;;;;;;;17.37;15.10;;;18.50;99.90;;;;;;5011045;28;20191;-73
2021/09/05 08:06:46;;;;;;;16.33;14.63;;;18.70;99.90;;;;;;5012364;28;20643;-72
2021/09/05 08:09:12;;;;;;;18.67;15.70;;;18.70;99.90;;;;;;5012560;28;20270;-73
2021/09/05 08:11:37;;;;;;;21.20;17.30;;;18.70;99.90;;;;;;5014171;28;20177;-72
2021/09/05 08:14:04;;;;;;;22.27;17.60;;;18.70;99.90;;;;;;5014026;28;20183;-72
2021/09/05 08:16:33;;;;;;;22.70;18.47;;;18.80;99.90;;;;;;5014966;28;20638;-72
2021/09/05 08:18:59;;;;;;;29.07;23.30;;;19.00;99.90;;;;;;5013526;28;20556;-71
2021/09/05 08:21:25;;;;;;;23.60;20.40;;;19.20;99.90;;;;;;5012580;28;21082;-71
2021/09/05 08:23:51;;;;;;;19.57;16.83;;;19.20;99.90;;;;;;5013701;28;20251;-71
2021/09/05 08:26:18;;;;;;;23.40;19.77;;;19.10;99.90;;;;;;5012902;28;20436;-73
2021/09/05 08:28:44;;;;;;;21.23;18.97;;;19.10;99.90;;;;;;5013776;28;20171;-73
2021/09/05 08:31:10;;;;;;;20.73;17.33;;;19.20;99.90;;;;;;5012907;28;20409;-73
2021/09/05 08:33:36;;;;;;;18.63;16.67;;;19.20;99.90;;;;;;5013445;28;20489;-72
2021/09/05 08:36:03;;;;;;;17.63;15.73;;;19.10;99.90;;;;;;5012970;28;20548;-73
2021/09/05 08:38:29;;;;;;;19.50;16.43;;;19.10;99.90;;;;;;5011354;28;20453;-73
2021/09/05 08:40:55;;;;;;;16.40;14.70;;;19.10;99.90;;;;;;5013536;28;20464;-73
2021/09/05 08:43:22;;;;;;;16.47;14.67;;;19.20;99.90;;;;;;5010830;28;20414;-72
2021/09/05 08:45:49;;;;;;;21.20;16.53;;;19.20;99.90;;;;;;5011198;28;20421;-72
2021/09/05 08:48:17;;;;;;;17.07;15.30;;;19.10;99.90;;;;;;5012037;28;20422;-73
2021/09/05 08:50:45;;;;;;;16.63;14.83;;;19.10;99.90;;;;;;5013026;28;20505;-72
2021/09/05 08:53:11;;;;;;;16.60;14.60;;;19.20;99.90;;;;;;5011995;28;20425;-73
2021/09/05 08:55:37;;;;;;;18.70;16.53;;;19.30;99.90;;;;;;5012528;28;20421;-73
2021/09/05 08:58:03;;;;;;;18.30;16.40;;;19.50;99.90;;;;;;5012663;28;20476;-73
2021/09/05 09:00:29;;;;;;;18.23;16.30;;;19.70;99.90;;;;;;5012152;28;20413;-73
2021/09/05 09:02:57;;;;;;;19.50;17.07;;;20.00;99.90;;;;;;5011748;28;20403;-73
2021/09/05 09:05:32;;;;;;;17.23;15.43;;;20.20;99.90;;;;;;5027224;28;20556;-73
2021/09/05 09:08:09;;;;;;;16.87;15.07;;;20.30;99.90;;;;;;5012703;28;20765;-73
2021/09/05 09:11:01;;;;;;;19.30;16.80;;;20.50;99.90;;;;;;5012915;28;20405;-72
2021/09/05 09:13:34;;;;;;;16.77;15.07;;;20.80;99.90;;;;;;5012495;28;20477;-71
2021/09/05 09:16:11;;;;;;;16.90;15.20;;;20.90;99.90;;;;;;5010503;28;20785;-71
2021/09/05 09:18:39;;;;;;;17.37;15.67;;;21.10;99.90;;;;;;5012418;28;20824;-72
2021/09/05 09:21:07;;;;;;;17.13;15.33;;;21.40;99.90;;;;;;5012262;28;20949;-72
2021/09/05 09:23:35;;;;;;;17.03;15.27;;;21.50;99.80;;;;;;5011884;28;20944;-72
2021/09/05 09:26:10;;;;;;;16.27;14.57;;;21.60;99.90;;;;;;5012630;28;20501;-72
2021/09/05 09:28:41;;;;;;;14.60;13.17;;;21.90;99.90;;;;;;4994020;28;20433;-72
2021/09/05 09:31:15;;;;;;;15.93;14.43;;;22.10;99.90;;;;;;5012422;28;20494;-72
2021/09/05 09:33:43;;;;;;;16.30;14.70;;;22.20;98.70;;;;;;5012914;28;20567;-72
2021/09/05 09:36:13;;;;;;;15.83;14.17;;;22.40;99.60;;;;;;5012085;28;20499;-79
2021/09/05 09:38:51;;;;;;;17.07;15.27;;;22.50;98.70;;;;;;5010443;28;20787;-72
2021/09/05 09:41:17;;;;;;;15.93;14.43;;;22.70;99.90;;;;;;5011476;28;20394;-72
2021/09/05 09:44:02;;;;;;;16.80;15.10;;;23.00;99.90;;;;;;5012042;28;20413;-72
2021/09/05 09:46:32;;;;;;;15.80;14.30;;;23.30;98.20;;;;;;5010740;28;20199;-72
2021/09/05 09:49:01;;;;;;;15.50;14.00;;;23.50;98.90;;;;;;5010893;28;20834;-73
2021/09/05 09:51:27;;;;;;;15.93;14.40;;;23.70;97.70;;;;;;4993412;28;20410;-72
2021/09/05 09:53:54;;;;;;;14.87;13.27;;;23.90;98.50;;;;;;5010774;28;20410;-73
2021/09/05 09:56:21;;;;;;;15.60;14.10;;;24.00;96.20;;;;;;5007786;28;20910;-72
2021/09/05 09:58:49;;;;;;;15.10;13.70;;;24.00;95.20;;;;;;5010947;28;20573;-72
2021/09/05 10:01:19;;;;;;;15.10;13.67;;;24.20;97.20;;;;;;5004964;28;20422;-76
2021/09/05 10:03:47;;;;;;;14.63;13.23;;;24.40;96.90;;;;;;5008456;28;20418;-72
2021/09/05 10:06:13;;;;;;;15.00;13.60;;;24.50;95.30;;;;;;5010564;28;20414;-79
2021/09/05 10:08:41;;;;;;;14.97;13.57;;;24.70;94.50;;;;;;5010333;28;21015;-74
2021/09/05 10:11:11;;;;;;;13.47;12.27;;;24.90;94.70;;;;;;5011171;28;20897;-72
2021/09/05 10:13:38;;;;;;;16.40;14.93;;;25.10;95.40;;;;;;5010794;28;20386;-71
2021/09/05 10:16:05;;;;;;;13.73;12.43;;;25.20;94.40;;;;;;5010746;28;20756;-73
2021/09/05 10:18:34;;;;;;;14.30;13.00;;;25.40;94.40;;;;;;5008360;28;20811;-72
2021/09/05 10:21:00;;;;;;;14.80;13.50;;;25.60;94.00;;;;;;5008936;28;20986;-73
2021/09/05 10:23:32;;;;;;;58.00;50.77;;;25.80;93.70;;;;;;5010134;28;20480;-71
2021/09/05 10:26:12;;;;;;;37.07;33.17;;;25.90;91.60;;;;;;5011846;28;20829;-71
2021/09/05 10:28:37;;;;;;;17.87;15.97;;;26.10;92.50;;;;;;5012796;28;20508;-74
2021/09/05 10:31:04;;;;;;;15.63;14.13;;;26.20;92.70;;;;;;5015283;28;20500;-71
2021/09/05 10:33:32;;;;;;;14.70;13.50;;;26.30;91.40;;;;;;5013401;28;20948;-72
2021/09/05 10:36:08;;;;;;;15.03;13.57;;;26.50;91.80;;;;;;5015597;28;20466;-71
2021/09/05 10:38:35;;;;;;;14.60;13.20;;;26.60;90.60;;;;;;5014599;28;20449;-72
2021/09/05 10:41:06;;;;;;;15.50;14.10;;;26.70;90.70;;;;;;5015329;28;20409;-72
2021/09/05 10:43:47;;;;;;;14.37;13.00;;;26.80;90.70;;;;;;5012749;28;21045;-72
2021/09/05 10:46:43;;;;;;;13.93;12.73;;;27.00;90.30;;;;;;5013252;28;20468;-80
2021/09/05 10:49:10;;;;;;;14.57;13.37;;;27.10;90.00;;;;;;5014580;28;20414;-71
2021/09/05 10:51:50;;;;;;;15.27;13.87;;;27.30;90.00;;;;;;5014194;28;20410;-71
2021/09/05 10:54:26;;;;;;;14.37;13.07;;;27.40;90.00;;;;;;5011138;28;20504;-73
2021/09/05 10:56:54;;;;;;;16.17;14.77;;;27.50;88.10;;;;;;5011706;28;20992;-71
2021/09/05 10:59:22;;;;;;;14.40;13.20;;;27.60;87.00;;;;;;4994481;28;20478;-72
2021/09/05 11:01:48;;;;;;;16.13;14.77;;;27.70;87.90;;;;;;5003272;28;20422;-71
2021/09/05 11:04:14;;;;;;;14.00;12.80;;;27.80;87.70;;;;;;5013937;28;20426;-80
2021/09/05 11:06:52;;;;;;;15.70;14.50;;;27.80;86.20;;;;;;5014770;28;20198;-72
2021/09/05 11:09:18;;;;;;;15.60;14.20;;;27.80;84.60;;;;;;5013781;28;20425;-72
2021/09/05 11:12:11;;;;;;;15.50;14.13;;;27.80;84.30;;;;;;5014457;28;20426;-72
2021/09/05 11:17:19;;;;;;;85.90;76.40;;;27.90;84.00;;;;;;5008264;28;20441;-71
2021/09/05 11:19:49;;;;;;;47.93;42.83;;;27.90;85.00;;;;;;5014355;28;21029;-71
2021/09/05 11:22:19;;;;;;;14.40;13.10;;;27.90;83.50;;;;;;5013718;28;20410;-80
2021/09/05 11:24:46;;;;;;;13.87;12.70;;;27.80;82.30;;;;;;5014563;28;20419;-72
2021/09/05 11:27:14;;;;;;;14.37;12.97;;;27.80;83.20;;;;;;5014197;28;20406;-71
2021/09/05 11:29:41;;;;;;;14.90;13.60;;;27.90;83.70;;;;;;5014266;28;20482;-70
2021/09/05 11:32:09;;;;;;;13.30;12.10;;;27.80;83.50;;;;;;5014299;28;20426;-71
2021/09/05 11:34:36;;;;;;;14.30;13.10;;;27.90;84.20;;;;;;5012885;28;20579;-71
2021/09/05 11:37:03;;;;;;;13.90;12.70;;;28.00;83.00;;;;;;5013794;28;20450;-71
2021/09/05 11:39:29;;;;;;;14.00;12.70;;;28.00;82.00;;;;;;5004054;28;20572;-78
2021/09/05 11:41:56;;;;;;;17.50;16.00;;;28.00;83.70;;;;;;5004888;28;20506;-72
2021/09/05 11:44:36;;;;;;;15.23;13.93;;;28.10;81.30;;;;;;4992903;28;20451;-72
2021/09/05 11:47:19;;;;;;;15.67;14.27;;;28.10;82.00;;;;;;4994157;28;20767;-72
2021/09/05 11:49:53;;;;;;;15.53;14.10;;;28.20;84.20;;;;;;4994569;28;20462;-71
2021/09/05 11:52:20;;;;;;;15.37;14.07;;;28.30;83.20;;;;;;4993687;28;20502;-72
2021/09/05 11:54:58;;;;;;;14.47;13.27;;;28.40;83.70;;;;;;4988267;28;20428;-72
2021/09/05 11:57:24;;;;;;;13.60;12.50;;;28.50;83.30;;;;;;5013028;28;20806;-72
2021/09/05 11:59:55;;;;;;;13.87;12.67;;;28.60;82.00;;;;;;5013689;28;20465;-72
2021/09/05 12:02:28;;;;;;;12.47;11.37;;;28.60;79.70;;;;;;5000183;28;20911;-72
2021/09/05 12:04:54;;;;;;;12.97;11.90;;;28.60;80.30;;;;;;4994167;28;20476;-72
2021/09/05 12:07:20;;;;;;;13.70;12.60;;;28.60;79.40;;;;;;4996011;28;20414;-72
2021/09/05 12:09:46;;;;;;;13.73;12.60;;;28.60;79.90;;;;;;4985307;28;20421;-72
2021/09/05 12:12:12;;;;;;;13.13;12.13;;;28.60;80.10;;;;;;5002620;28;20766;-71
2021/09/05 12:14:39;;;;;;;14.47;13.17;;;28.60;78.70;;;;;;5000776;28;21202;-73
2021/09/05 12:17:30;;;;;;;99.03;88.53;;;28.60;78.80;;;;;;4985628;28;20175;-72
2021/09/05 12:19:58;;;;;;;39.43;35.33;;;28.60;79.80;;;;;;5002151;28;20957;-74
2021/09/05 12:22:25;;;;;;;14.10;12.60;;;28.50;78.20;;;;;;4998199;28;20894;-72
2021/09/05 12:24:57;;;;;;;14.33;13.10;;;28.50;77.90;;;;;;4998244;28;20973;-72
2021/09/05 12:27:23;;;;;;;14.30;12.90;;;28.40;78.30;;;;;;4983818;28;20742;-72
2021/09/05 12:29:49;;;;;;;15.87;12.57;;;28.30;79.50;;;;;;4998163;28;20518;-73
2021/09/05 12:32:15;;;;;;;14.07;12.87;;;28.20;80.10;;;;;;5003841;28;20182;-78